createdAt,value
2019-01-19T00:01:53.103Z,-9.01
2019-01-19T00:04:59.213Z,-9.05
2019-01-19T00:08:31.184Z,-8.97
2019-01-19T00:11:53.007Z,-9.02
2019-01-19T00:14:51.407Z,-9.09
2019-01-19T00:18:07.451Z,-9.13
2019-01-19T00:21:40.908Z,-9.15
2019-01-19T00:24:30.254Z,-9.19
2019-01-19T00:27:47.571Z,-9.24
2019-01-19T00:30:56.772Z,-9.23
2019-01-19T00:33:57.916Z,-9.26
2019-01-19T00:37:25.705Z,-9.33
2019-01-19T00:40:45.820Z,-9.31
2019-01-19T00:44:00.643Z,-9.29
2019-01-19T00:47:13.947Z,-9.26
2019-01-19T00:50:09.572Z,-9.29
2019-01-19T00:52:55.626Z,-9.45
2019-01-19T00:56:04.303Z,-9.51
2019-01-19T00:59:11.407Z,-9.51
2019-01-19T01:02:25.231Z,-9.48
2019-01-19T01:05:26.575Z,-9.43
2019-01-19T01:08:29.584Z,-9.46
2019-01-19T01:11:26.553Z,-9.54
2019-01-19T01:14:42.838Z,-9.52
2019-01-19T01:17:42.883Z,-9.48
2019-01-19T01:21:01.191Z,-9.48
2019-01-19T01:23:55.052Z,-9.49
2019-01-19T01:26:49.398Z,-9.46
2019-01-19T01:30:02.435Z,-9.45
2019-01-19T01:33:00.229Z,-9.44
2019-01-19T01:36:10.834Z,-9.43
2019-01-19T01:39:16.650Z,-9.51
2019-01-19T01:42:31.111Z,-9.53
2019-01-19T01:45:48.267Z,-9.55
2019-01-19T01:49:08.696Z,-9.58
2019-01-19T01:52:23.622Z,-9.54
2019-01-19T01:55:16.688Z,-9.57
2019-01-19T01:58:04.360Z,-9.59
2019-01-19T02:01:04.120Z,-9.61
2019-01-19T02:04:06.122Z,-9.72
2019-01-19T02:07:17.709Z,-9.74
2019-01-19T02:10:40.191Z,-9.72
2019-01-19T02:13:44.777Z,-9.70
2019-01-19T02:17:02.202Z,-9.70
2019-01-19T02:20:12.258Z,-9.69
2019-01-19T02:23:08.259Z,-9.78
2019-01-19T02:26:28.717Z,-9.73
2019-01-19T02:29:33.419Z,-9.73
2019-01-19T02:32:41.932Z,-9.75
2019-01-19T02:35:55.109Z,-9.65
2019-01-19T02:39:21.933Z,-9.63
2019-01-19T02:42:24.728Z,-9.68
2019-01-19T02:45:40.519Z,-9.65
2019-01-19T02:48:35.193Z,-9.65
2019-01-19T02:51:42.481Z,-9.67
2019-01-19T02:54:50.808Z,-9.66
2019-01-19T02:57:51.106Z,-9.56
2019-01-19T03:01:10.295Z,-9.57
2019-01-19T03:04:00.457Z,-9.57
2019-01-19T03:07:05.774Z,-9.62
2019-01-19T03:10:07.254Z,-9.72
2019-01-19T03:13:09.357Z,-9.74
2019-01-19T03:16:26.641Z,-9.78
2019-01-19T03:19:31.822Z,-9.73
2019-01-19T03:22:53.963Z,-9.73
2019-01-19T03:25:59.859Z,-9.82
2019-01-19T03:28:58.910Z,-9.94
2019-01-19T03:32:10.428Z,-9.88
2019-01-19T03:34:59.573Z,-9.85
2019-01-19T03:38:24.557Z,-9.87
2019-01-19T03:41:40.297Z,-9.83
2019-01-19T03:44:39.219Z,-9.90
2019-01-19T03:48:04.573Z,-9.94
2019-01-19T03:50:56.333Z,-9.91
2019-01-19T03:53:51.221Z,-9.91
2019-01-19T03:57:09.424Z,-9.96
2019-01-19T04:00:21.191Z,-10.01
2019-01-19T04:03:47.746Z,-10.00
2019-01-19T04:06:34.149Z,-9.92
2019-01-19T04:09:58.543Z,-9.88
2019-01-19T04:13:22.374Z,-9.88
2019-01-19T04:16:33.812Z,-10.04
2019-01-19T04:19:42.436Z,-9.97
2019-01-19T04:22:37.313Z,-9.93
2019-01-19T04:26:00.526Z,-9.88
2019-01-19T04:28:28.609Z,-9.90
2019-01-19T04:30:59.416Z,-9.91
2019-01-19T04:33:33.604Z,-9.91
2019-01-19T04:36:04.440Z,-9.89
2019-01-19T04:38:40.409Z,-9.98
2019-01-19T04:41:11.231Z,-10.06
2019-01-19T04:43:42.115Z,-10.02
2019-01-19T04:46:13.106Z,-10.05
2019-01-19T04:48:49.615Z,-10.09
2019-01-19T04:51:20.853Z,-10.18
2019-01-19T04:53:51.708Z,-10.17
2019-01-19T04:56:25.576Z,-10.14
2019-01-19T04:58:57.004Z,-10.12
2019-01-19T05:01:30.853Z,-10.15
2019-01-19T05:04:06.967Z,-10.22
2019-01-19T05:06:39.766Z,-10.24
2019-01-19T05:09:10.831Z,-10.25
2019-01-19T05:11:44.916Z,-10.19
2019-01-19T05:14:15.842Z,-10.22
2019-01-19T05:16:47.541Z,-10.25
2019-01-19T05:19:18.640Z,-10.28
2019-01-19T05:21:51.639Z,-10.26
2019-01-19T05:24:24.492Z,-10.29
2019-01-19T05:26:55.422Z,-10.35
2019-01-19T05:29:26.490Z,-10.40
2019-01-19T05:31:59.475Z,-10.46
2019-01-19T05:34:30.853Z,-10.42
2019-01-19T05:37:03.636Z,-10.42
2019-01-19T05:39:34.543Z,-10.37
2019-01-19T05:42:05.456Z,-10.39
2019-01-19T05:44:36.746Z,-10.44
2019-01-19T05:47:07.542Z,-10.53
2019-01-19T05:49:38.858Z,-10.58
2019-01-19T05:52:11.508Z,-10.57
2019-01-19T05:54:45.630Z,-10.57
2019-01-19T05:57:16.441Z,-10.57
2019-01-19T05:59:55.637Z,-10.64
2019-01-19T06:02:30.571Z,-10.63
2019-01-19T06:05:01.362Z,-10.51
2019-01-19T06:07:37.852Z,-10.52
2019-01-19T06:10:13.580Z,-10.54
2019-01-19T06:12:46.466Z,-10.59
2019-01-19T06:15:17.599Z,-10.64
2019-01-19T06:17:49.496Z,-10.57
2019-01-19T06:20:21.753Z,-10.52
2019-01-19T06:22:54.249Z,-10.60
2019-01-19T06:25:25.208Z,-10.59
2019-01-19T06:27:58.936Z,-10.58
2019-01-19T06:30:29.810Z,-10.56
2019-01-19T06:33:03.725Z,-10.59
2019-01-19T06:35:34.969Z,-10.65
2019-01-19T06:38:07.437Z,-10.63
2019-01-19T06:40:41.588Z,-10.63
2019-01-19T06:43:14.422Z,-10.61
2019-01-19T06:45:45.271Z,-10.65
2019-01-19T06:48:16.284Z,-10.69
2019-01-19T06:50:47.604Z,-10.71
2019-01-19T06:53:20.753Z,-10.64
2019-01-19T06:55:51.577Z,-10.61
2019-01-19T06:58:26.262Z,-10.59
2019-01-19T07:00:57.080Z,-10.57
2019-01-19T07:03:29.487Z,-10.66
2019-01-19T07:06:06.803Z,-10.65
2019-01-19T07:08:38.813Z,-10.58
2019-01-19T07:11:13.052Z,-10.54
2019-01-19T07:13:46.731Z,-10.54
2019-01-19T07:16:25.353Z,-10.46
2019-01-19T07:19:03.141Z,-10.42
2019-01-19T07:21:34.257Z,-10.45
2019-01-19T07:24:07.929Z,-10.47
2019-01-19T07:26:43.042Z,-10.42
2019-01-19T07:29:17.975Z,-10.39
2019-01-19T07:31:49.642Z,-10.34
2019-01-19T07:34:22.542Z,-10.21
2019-01-19T07:36:53.891Z,-10.13
2019-01-19T07:39:28.170Z,-10.09
2019-01-19T07:42:00.626Z,-10.06
2019-01-19T07:44:31.535Z,-10.02
2019-01-19T07:47:04.305Z,-9.97
2019-01-19T07:49:42.878Z,-9.91
2019-01-19T07:52:15.254Z,-9.85
2019-01-19T07:54:48.365Z,-9.81
2019-01-19T07:57:21.630Z,-9.70
2019-01-19T07:59:52.498Z,-9.73
2019-01-19T08:02:23.559Z,-9.69
2019-01-19T08:04:59.309Z,-9.59
2019-01-19T08:07:30.238Z,-9.58
2019-01-19T08:10:03.856Z,-9.59
2019-01-19T08:12:37.562Z,-9.57
2019-01-19T08:15:10.576Z,-9.50
2019-01-19T08:17:41.584Z,-9.44
2019-01-19T08:20:14.624Z,-9.34
2019-01-19T08:22:49.934Z,-9.24
2019-01-19T08:25:33.995Z,-9.16
2019-01-19T08:28:05.767Z,-9.04
2019-01-19T08:30:40.080Z,-8.92
2019-01-19T08:33:12.183Z,-8.80
2019-01-19T08:35:43.925Z,-8.72
2019-01-19T08:38:20.407Z,-8.71
2019-01-19T08:40:53.070Z,-8.70
2019-01-19T08:43:44.309Z,-8.65
2019-01-19T08:46:15.331Z,-8.45
2019-01-19T08:48:46.546Z,-8.19
2019-01-19T08:51:41.241Z,-8.00
2019-01-19T08:54:15.586Z,-7.80
2019-01-19T08:56:46.538Z,-7.61
2019-01-19T08:59:17.454Z,-7.48
2019-01-19T09:01:50.872Z,-7.30
2019-01-19T09:04:34.966Z,-7.13
2019-01-19T09:07:07.407Z,-7.08
2019-01-19T09:09:42.123Z,-7.02
2019-01-19T09:12:20.293Z,-6.85
2019-01-19T09:14:54.174Z,-6.73
2019-01-19T09:17:29.149Z,-6.57
2019-01-19T09:20:08.690Z,-6.38
2019-01-19T09:22:41.935Z,-6.18
2019-01-19T09:25:14.811Z,-5.97
2019-01-19T09:27:52.951Z,-5.84
2019-01-19T09:30:38.416Z,-5.67
2019-01-19T09:33:12.907Z,-5.48
2019-01-19T09:35:47.279Z,-5.47
2019-01-19T09:38:28.310Z,-5.55
2019-01-19T09:41:02.781Z,-5.46
2019-01-19T09:43:42.201Z,-5.32
2019-01-19T09:46:19.560Z,-5.22
2019-01-19T09:48:53.139Z,-5.08
2019-01-19T09:51:33.952Z,-4.93
2019-01-19T09:54:06.891Z,-4.72
2019-01-19T09:56:39.292Z,-4.50
2019-01-19T09:59:11.776Z,-4.38
2019-01-19T10:01:46.738Z,-4.31
2019-01-19T10:04:23.933Z,-4.01
2019-01-19T10:06:56.326Z,-3.89
2019-01-19T10:09:31.561Z,-3.54
2019-01-19T10:12:10.806Z,-3.20
2019-01-19T10:14:48.137Z,-2.92
2019-01-19T10:17:33.864Z,-2.58
2019-01-19T10:20:13.262Z,-2.38
2019-01-19T10:22:44.104Z,-2.05
2019-01-19T10:25:15.456Z,-1.87
2019-01-19T10:27:48.419Z,-1.74
2019-01-19T10:30:26.810Z,-1.61
2019-01-19T10:33:04.289Z,-1.46
2019-01-19T10:35:49.515Z,-1.28
2019-01-19T10:38:26.792Z,-1.13
2019-01-19T10:41:18.414Z,-0.90
2019-01-19T10:43:58.187Z,-0.88
2019-01-19T10:46:34.097Z,-0.81
2019-01-19T10:49:29.217Z,-0.73
2019-01-19T10:52:04.439Z,-0.70
2019-01-19T10:54:35.331Z,-0.71
2019-01-19T10:57:09.152Z,-0.82
2019-01-19T10:59:42.542Z,-0.64
2019-01-19T11:02:16.608Z,-0.38
2019-01-19T11:04:48.262Z,-0.33
2019-01-19T11:07:21.998Z,-0.25
2019-01-19T11:09:54.090Z,-0.13
2019-01-19T11:12:25.087Z,0.08
2019-01-19T11:14:55.997Z,0.23
2019-01-19T11:17:34.201Z,0.34
2019-01-19T11:20:06.788Z,0.42
2019-01-19T11:22:37.572Z,0.50
2019-01-19T11:25:11.215Z,0.54
2019-01-19T11:27:42.323Z,0.59
2019-01-19T11:30:23.098Z,0.59
2019-01-19T11:32:56.787Z,0.61
2019-01-19T11:35:28.354Z,0.74
2019-01-19T11:38:03.926Z,0.88
2019-01-19T11:40:38.254Z,1.01
2019-01-19T11:43:20.444Z,1.18
2019-01-19T11:45:51.330Z,1.29
2019-01-19T11:48:25.536Z,1.38
2019-01-19T11:50:56.761Z,1.47
2019-01-19T11:53:28.898Z,1.53
2019-01-19T11:56:01.642Z,1.52
2019-01-19T11:58:44.426Z,1.61
2019-01-19T12:01:15.418Z,1.75
2019-01-19T12:03:46.681Z,1.88
2019-01-19T12:06:17.626Z,1.82
2019-01-19T12:08:48.936Z,1.86
2019-01-19T12:11:24.983Z,1.85
2019-01-19T12:13:55.822Z,1.81
2019-01-19T12:16:26.574Z,1.76
2019-01-19T12:18:57.941Z,1.72
2019-01-19T12:21:29.324Z,1.60
2019-01-19T12:24:00.784Z,1.32
2019-01-19T12:26:36.018Z,1.13
2019-01-19T12:29:14.870Z,1.13
2019-01-19T12:31:48.289Z,0.99
2019-01-19T12:34:22.389Z,0.74
2019-01-19T12:37:00.799Z,0.61
2019-01-19T12:39:32.365Z,0.58
2019-01-19T12:42:09.177Z,0.54
2019-01-19T12:44:40.114Z,0.49
2019-01-19T12:47:13.533Z,0.23
2019-01-19T12:49:46.413Z,0.08
2019-01-19T12:52:18.173Z,0.05
2019-01-19T12:54:49.390Z,0.02
2019-01-19T12:57:21.433Z,-0.08
2019-01-19T12:59:54.813Z,-0.15
2019-01-19T13:02:26.750Z,-0.31
2019-01-19T13:05:05.920Z,-0.53
2019-01-19T13:07:42.576Z,-0.45
2019-01-19T13:10:21.445Z,-0.59
2019-01-19T13:13:33.499Z,-0.67
2019-01-19T13:16:54.053Z,-0.82
2019-01-19T13:20:14.057Z,-0.96
2019-01-19T13:23:25.072Z,-1.07
2019-01-19T13:26:46.358Z,-1.31
2019-01-19T13:30:06.944Z,-1.34
2019-01-19T13:32:50.294Z,-1.40
2019-01-19T13:36:06.487Z,-1.39
2019-01-19T13:38:57.721Z,-1.42
2019-01-19T13:42:35.255Z,-1.59
2019-01-19T13:45:47.371Z,-1.64
2019-01-19T13:48:58.927Z,-1.65
2019-01-19T13:52:01.139Z,-1.71
2019-01-19T13:55:19.895Z,-1.72
2019-01-19T13:58:14.508Z,-1.86
2019-01-19T14:01:25.731Z,-1.92
2019-01-19T14:04:58.678Z,-1.98
2019-01-19T14:08:34.453Z,-2.02
2019-01-19T14:12:03.792Z,-2.12
2019-01-19T14:15:06.438Z,-2.17
2019-01-19T14:18:15.457Z,-2.26
2019-01-19T14:21:26.036Z,-2.27
2019-01-19T14:24:19.813Z,-2.38
2019-01-19T14:27:33.172Z,-2.46
2019-01-19T14:30:32.859Z,-2.55
2019-01-19T14:33:29.531Z,-2.59
2019-01-19T14:36:33.587Z,-2.59
2019-01-19T14:39:51.018Z,-2.59
2019-01-19T14:42:56.636Z,-2.69
2019-01-19T14:45:58.326Z,-2.78
2019-01-19T14:49:04.458Z,-2.83
2019-01-19T14:52:06.368Z,-2.95
2019-01-19T14:55:05.076Z,-3.00
2019-01-19T14:58:26.484Z,-3.06
2019-01-19T15:01:43.230Z,-3.15
2019-01-19T15:04:39.633Z,-3.30
2019-01-19T15:07:53.859Z,-3.35
2019-01-19T15:11:07.243Z,-3.44
2019-01-19T15:14:18.779Z,-3.41
2019-01-19T15:17:33.913Z,-3.60
2019-01-19T15:20:39.350Z,-3.73
2019-01-19T15:24:04.498Z,-3.83
2019-01-19T15:27:13.253Z,-3.91
2019-01-19T15:30:18.648Z,-3.99
2019-01-19T15:33:29.407Z,-4.01
2019-01-19T15:36:48.593Z,-4.16
2019-01-19T15:40:05.128Z,-4.27
2019-01-19T15:43:04.670Z,-4.37
2019-01-19T15:46:16.774Z,-4.44
2019-01-19T15:49:29.917Z,-4.57
2019-01-19T15:52:59.430Z,-4.61
2019-01-19T15:56:19.486Z,-4.68
2019-01-19T15:59:02.398Z,-4.77
2019-01-19T16:02:08.965Z,-4.94
2019-01-19T16:05:32.875Z,-5.00
2019-01-19T16:08:50.053Z,-5.09
2019-01-19T16:11:56.906Z,-5.16
2019-01-19T16:15:10.679Z,-5.24
2019-01-19T16:18:19.331Z,-5.28
2019-01-19T16:21:39.505Z,-5.32
2019-01-19T16:24:38.242Z,-5.34
2019-01-19T16:27:41.475Z,-5.47
2019-01-19T16:31:06.025Z,-5.50
2019-01-19T16:34:35.131Z,-5.57
2019-01-19T16:37:17.649Z,-5.62
2019-01-19T16:40:24.473Z,-5.70
2019-01-19T16:43:26.617Z,-5.76
2019-01-19T16:46:48.642Z,-5.84
2019-01-19T16:50:09.200Z,-5.87
2019-01-19T16:53:27.074Z,-5.91
2019-01-19T16:56:39.874Z,-5.91
2019-01-19T16:59:56.219Z,-6.10
2019-01-19T17:02:58.969Z,-6.14
2019-01-19T17:06:19.778Z,-6.24
2019-01-19T17:09:15.059Z,-6.27
2019-01-19T17:12:22.011Z,-6.29
2019-01-19T17:15:16.880Z,-6.37
2019-01-19T17:18:36.000Z,-6.40
2019-01-19T17:21:43.931Z,-6.55
2019-01-19T17:24:58.059Z,-6.68
2019-01-19T17:28:03.627Z,-6.73
2019-01-19T17:31:13.006Z,-6.73
2019-01-19T17:34:21.946Z,-6.85
2019-01-19T17:37:09.164Z,-6.86
2019-01-19T17:40:22.694Z,-6.96
2019-01-19T17:43:22.193Z,-6.99
2019-01-19T17:46:08.210Z,-6.96
2019-01-19T17:49:11.421Z,-7.02
2019-01-19T17:52:23.941Z,-7.09
2019-01-19T17:55:30.907Z,-7.20
2019-01-19T17:58:47.023Z,-7.26
2019-01-19T18:01:56.751Z,-7.26
2019-01-19T18:05:33.582Z,-7.30
2019-01-19T18:08:41.567Z,-7.36
2019-01-19T18:11:51.232Z,-7.48
2019-01-19T18:14:59.452Z,-7.57
2019-01-19T18:17:49.370Z,-7.66
2019-01-19T18:21:02.095Z,-7.73
2019-01-19T18:24:27.194Z,-7.73
2019-01-19T18:27:53.972Z,-7.79
2019-01-19T18:31:23.085Z,-8.03
2019-01-19T18:34:19.556Z,-8.05
2019-01-19T18:37:34.497Z,-8.12
2019-01-19T18:40:37.653Z,-8.15
2019-01-19T18:43:44.419Z,-8.25
2019-01-19T18:46:34.818Z,-8.23
2019-01-19T18:49:51.149Z,-8.35
2019-01-19T18:52:58.787Z,-8.65
2019-01-19T18:56:18.347Z,-8.56
2019-01-19T18:59:05.611Z,-8.68
2019-01-19T19:02:17.553Z,-8.60
2019-01-19T19:05:24.014Z,-8.55
2019-01-19T19:08:38.675Z,-8.79
2019-01-19T19:11:59.206Z,-8.77
2019-01-19T19:14:50.809Z,-8.77
2019-01-19T19:18:21.046Z,-8.86
2019-01-19T19:21:47.775Z,-8.82
2019-01-19T19:25:06.039Z,-8.84
2019-01-19T19:28:27.113Z,-9.06
2019-01-19T19:31:39.139Z,-9.15
2019-01-19T19:34:41.671Z,-9.02
2019-01-19T19:38:11.869Z,-8.96
2019-01-19T19:41:23.939Z,-9.03
2019-01-19T19:44:43.811Z,-9.05
2019-01-19T19:47:46.944Z,-8.94
2019-01-19T19:51:00.447Z,-9.00
2019-01-19T19:53:33.343Z,-9.07
2019-01-19T19:56:06.098Z,-9.07
2019-01-19T19:58:38.576Z,-9.09
2019-01-19T20:01:28.295Z,-9.10
2019-01-19T20:04:04.225Z,-9.12
2019-01-19T20:06:39.160Z,-9.12
2019-01-19T20:09:18.413Z,-9.18
2019-01-19T20:11:55.721Z,-9.10
2019-01-19T20:14:35.098Z,-9.16
2019-01-19T20:17:14.704Z,-9.16
2019-01-19T20:19:56.487Z,-9.19
2019-01-19T20:22:41.302Z,-9.13
2019-01-19T20:25:15.337Z,-9.23
2019-01-19T20:27:52.091Z,-9.27
2019-01-19T20:30:30.702Z,-9.32
2019-01-19T20:33:06.947Z,-9.43
2019-01-19T20:35:49.804Z,-9.37
2019-01-19T20:38:26.041Z,-9.30
2019-01-19T20:40:59.955Z,-9.23
2019-01-19T20:43:36.014Z,-9.46
2019-01-19T20:46:17.588Z,-9.45
2019-01-19T20:48:50.535Z,-9.68
2019-01-19T20:51:24.203Z,-9.79
2019-01-19T20:54:12.867Z,-9.66
2019-01-19T20:56:53.564Z,-9.63
2019-01-19T20:59:43.783Z,-9.82
2019-01-19T21:02:22.244Z,-9.70
2019-01-19T21:05:02.275Z,-9.56
2019-01-19T21:07:40.293Z,-9.50
2019-01-19T21:10:32.003Z,-9.43
2019-01-19T21:13:01.516Z,-9.42
2019-01-19T21:15:34.540Z,-9.48
2019-01-19T21:18:07.040Z,-9.41
2019-01-19T21:20:47.462Z,-9.46
2019-01-19T21:23:26.396Z,-9.53
2019-01-19T21:26:00.561Z,-9.63
2019-01-19T21:28:35.223Z,-9.73
2019-01-19T21:31:17.450Z,-9.75
2019-01-19T21:33:54.753Z,-9.69
2019-01-19T21:36:37.344Z,-9.56
2019-01-19T21:39:12.633Z,-9.64
2019-01-19T21:41:49.830Z,-9.58
2019-01-19T21:44:22.830Z,-9.50
2019-01-19T21:47:05.646Z,-9.38
2019-01-19T21:49:43.794Z,-9.36
2019-01-19T21:52:31.998Z,-9.28
2019-01-19T21:55:24.002Z,-8.93
2019-01-19T21:58:03.129Z,-9.09
2019-01-19T22:00:38.031Z,-9.08
2019-01-19T22:03:09.506Z,-9.11
2019-01-19T22:05:49.483Z,-8.93
2019-01-19T22:08:22.614Z,-8.82
2019-01-19T22:10:56.259Z,-8.72
2019-01-19T22:13:51.673Z,-8.75
2019-01-19T22:16:31.670Z,-8.82
2019-01-19T22:19:08.695Z,-8.88
2019-01-19T22:21:43.347Z,-8.80
2019-01-19T22:24:20.158Z,-8.75
2019-01-19T22:26:53.989Z,-8.79
2019-01-19T22:29:26.329Z,-8.88
2019-01-19T22:32:00.340Z,-9.03
2019-01-19T22:34:37.121Z,-9.13
2019-01-19T22:37:08.434Z,-9.19
2019-01-19T22:39:55.534Z,-9.18
2019-01-19T22:42:32.703Z,-9.16
2019-01-19T22:45:10.389Z,-9.37
2019-01-19T22:47:43.771Z,-9.45
2019-01-19T22:50:19.240Z,-9.46
2019-01-19T22:53:03.396Z,-9.42
2019-01-19T22:55:44.388Z,-9.33
2019-01-19T22:58:19.718Z,-9.32
2019-01-19T23:01:30.259Z,-9.33
2019-01-19T23:04:05.886Z,-9.33
2019-01-19T23:06:44.761Z,-9.40
2019-01-19T23:09:18.629Z,-9.54
2019-01-19T23:12:12.605Z,-9.54
2019-01-19T23:14:45.209Z,-9.54
2019-01-19T23:17:19.230Z,-9.50
2019-01-19T23:19:50.468Z,-9.49
2019-01-19T23:22:27.117Z,-9.51
2019-01-19T23:25:02.534Z,-9.52
2019-01-19T23:27:33.926Z,-9.47
2019-01-19T23:30:09.602Z,-9.43
2019-01-19T23:32:43.457Z,-9.46
2019-01-19T23:35:15.715Z,-9.52
2019-01-19T23:37:53.469Z,-9.59
2019-01-19T23:40:24.690Z,-9.67
2019-01-19T23:43:01.492Z,-9.78
2019-01-19T23:45:46.431Z,-9.76
2019-01-19T23:48:19.441Z,-9.82
2019-01-19T23:51:03.124Z,-9.94
2019-01-19T23:53:28.965Z,-9.99
2019-01-19T23:56:29.977Z,-9.96
2019-01-19T23:59:01.238Z,-10.02
